createdAt,value
2022-08-01T00:00:26.360Z,100.00
2022-08-01T00:03:27.973Z,100.00
2022-08-01T00:06:30.149Z,100.00
2022-08-01T00:09:32.001Z,100.00
2022-08-01T00:12:33.789Z,100.00
2022-08-01T00:15:35.564Z,100.00
2022-08-01T00:18:37.189Z,100.00
2022-08-01T00:21:40.107Z,100.00
2022-08-01T00:24:53.819Z,100.00
2022-08-01T00:27:55.501Z,100.00
2022-08-01T00:30:57.175Z,100.00
2022-08-01T00:33:58.859Z,100.00
2022-08-01T00:37:00.647Z,100.00
2022-08-01T00:40:02.430Z,100.00
2022-08-01T00:43:04.672Z,100.00
2022-08-01T00:46:06.469Z,100.00
2022-08-01T00:49:10.556Z,100.00
2022-08-01T00:52:13.138Z,100.00
2022-08-01T00:55:15.302Z,100.00
2022-08-01T00:58:17.845Z,100.00
2022-08-01T01:01:21.668Z,100.00
2022-08-01T01:04:23.560Z,100.00
2022-08-01T01:07:50.277Z,100.00
2022-08-01T01:11:05.484Z,100.00
2022-08-01T01:14:14.577Z,100.00
2022-08-01T01:17:31.273Z,100.00
2022-08-01T01:20:45.639Z,100.00
2022-08-01T01:24:04.819Z,100.00
2022-08-01T01:27:19.510Z,100.00
2022-08-01T01:30:26.710Z,100.00
2022-08-01T01:33:32.211Z,100.00
2022-08-01T01:36:34.893Z,100.00
2022-08-01T01:39:39.502Z,100.00
2022-08-01T01:42:47.877Z,100.00
2022-08-01T01:45:52.909Z,100.00
2022-08-01T01:48:57.898Z,100.00
2022-08-01T01:52:02.532Z,100.00
2022-08-01T01:55:08.005Z,100.00
2022-08-01T01:58:14.288Z,100.00
2022-08-01T02:01:17.005Z,100.00
2022-08-01T02:04:43.768Z,100.00
2022-08-01T02:07:46.191Z,100.00
2022-08-01T02:11:12.805Z,100.00
2022-08-01T02:14:16.545Z,100.00
2022-08-01T02:17:21.066Z,100.00
2022-08-01T02:20:23.156Z,100.00
2022-08-01T02:23:28.179Z,100.00
2022-08-01T02:26:31.831Z,100.00
2022-08-01T02:29:58.499Z,100.00
2022-08-01T02:33:05.973Z,100.00
2022-08-01T02:36:31.691Z,100.00
2022-08-01T02:39:32.900Z,100.00
2022-08-01T02:42:38.871Z,100.00
2022-08-01T02:45:44.715Z,100.00
2022-08-01T02:48:48.928Z,100.00
2022-08-01T02:51:53.966Z,100.00
2022-08-01T02:54:57.360Z,100.00
2022-08-01T02:58:00.835Z,100.00
2022-08-01T03:01:03.880Z,100.00
2022-08-01T03:04:08.017Z,100.00
2022-08-01T03:07:11.679Z,100.00
2022-08-01T03:10:17.102Z,100.00
2022-08-01T03:13:19.974Z,100.00
2022-08-01T03:16:25.173Z,100.00
2022-08-01T03:19:29.347Z,100.00
2022-08-01T03:22:34.688Z,100.00
2022-08-01T03:25:40.842Z,100.00
2022-08-01T03:28:45.111Z,100.00
2022-08-01T03:31:48.990Z,100.00
2022-08-01T03:34:50.929Z,100.00
2022-08-01T03:38:15.326Z,100.00
2022-08-01T03:41:22.122Z,100.00
2022-08-01T03:44:25.661Z,100.00
2022-08-01T03:47:32.355Z,100.00
2022-08-01T03:50:35.826Z,100.00
2022-08-01T03:53:42.277Z,100.00
2022-08-01T03:56:47.100Z,100.00
2022-08-01T03:59:50.111Z,100.00
2022-08-01T04:02:52.492Z,100.00
2022-08-01T04:05:54.415Z,100.00
2022-08-01T04:08:58.851Z,100.00
2022-08-01T04:12:01.142Z,100.00
2022-08-01T04:15:11.715Z,100.00
2022-08-01T04:18:13.318Z,100.00
2022-08-01T04:21:18.645Z,100.00
2022-08-01T04:24:23.242Z,100.00
2022-08-01T04:27:48.500Z,100.00
2022-08-01T04:31:01.820Z,100.00
2022-08-01T04:34:06.720Z,100.00
2022-08-01T04:37:13.255Z,100.00
2022-08-01T04:40:16.223Z,100.00
2022-08-01T04:43:20.911Z,100.00
2022-08-01T04:46:23.569Z,100.00
2022-08-01T04:49:25.464Z,100.00
2022-08-01T04:52:37.414Z,100.00
2022-08-01T04:55:39.024Z,100.00
2022-08-01T04:58:42.116Z,100.00
2022-08-01T05:01:43.725Z,100.00
2022-08-01T05:04:46.751Z,100.00
2022-08-01T05:07:48.334Z,100.00
2022-08-01T05:10:50.004Z,100.00
2022-08-01T05:13:52.462Z,100.00
2022-08-01T05:16:54.340Z,100.00
2022-08-01T05:19:56.129Z,100.00
2022-08-01T05:22:58.201Z,100.00
2022-08-01T05:25:59.862Z,100.00
2022-08-01T05:29:01.642Z,100.00
2022-08-01T05:32:04.238Z,100.00
2022-08-01T05:35:06.721Z,100.00
2022-08-01T05:38:08.326Z,100.00
2022-08-01T05:41:15.825Z,100.00
2022-08-01T05:44:17.431Z,100.00
2022-08-01T05:47:19.244Z,100.00
2022-08-01T05:50:20.916Z,100.00
2022-08-01T05:53:22.587Z,100.00
2022-08-01T05:56:24.457Z,100.00
2022-08-01T05:59:26.653Z,100.00
2022-08-01T06:02:28.904Z,100.00
2022-08-01T06:05:30.719Z,100.00
2022-08-01T06:08:32.815Z,100.00
2022-08-01T06:11:34.471Z,100.00
2022-08-01T06:14:36.105Z,100.00
2022-08-01T06:17:37.842Z,100.00
2022-08-01T06:20:39.439Z,100.00
2022-08-01T06:23:42.534Z,100.00
2022-08-01T06:26:44.163Z,100.00
2022-08-01T06:29:53.497Z,100.00
2022-08-01T06:33:00.848Z,100.00
2022-08-01T06:36:02.474Z,100.00
2022-08-01T06:39:04.383Z,100.00
2022-08-01T06:42:06.252Z,100.00
2022-08-01T06:45:12.937Z,100.00
2022-08-01T06:48:14.469Z,100.00
2022-08-01T06:51:19.011Z,100.00
2022-08-01T06:54:20.625Z,100.00
2022-08-01T06:57:22.248Z,100.00
2022-08-01T07:00:25.524Z,100.00
2022-08-01T07:03:54.062Z,100.00
2022-08-01T07:06:49.774Z,100.00
2022-08-01T07:09:51.381Z,100.00
2022-08-01T07:12:54.913Z,100.00
2022-08-01T07:15:56.588Z,100.00
2022-08-01T07:18:58.329Z,100.00
2022-08-01T07:22:00.012Z,100.00
2022-08-01T07:25:01.750Z,100.00
2022-08-01T07:28:03.625Z,100.00
2022-08-01T07:31:05.319Z,100.00
2022-08-01T07:34:08.066Z,100.00
2022-08-01T07:37:09.787Z,100.00
2022-08-01T07:40:12.003Z,100.00
2022-08-01T07:43:14.170Z,100.00
2022-08-01T07:46:16.502Z,100.00
2022-08-01T07:49:18.246Z,100.00
2022-08-01T07:52:20.791Z,100.00
2022-08-01T07:55:22.610Z,100.00
2022-08-01T07:58:24.276Z,100.00
2022-08-01T08:01:25.970Z,100.00
2022-08-01T08:04:28.808Z,100.00
2022-08-01T08:07:30.604Z,100.00
2022-08-01T08:10:32.446Z,100.00
2022-08-01T08:13:34.052Z,100.00
2022-08-01T08:16:35.708Z,100.00
2022-08-01T08:19:39.698Z,100.00
2022-08-01T08:22:41.670Z,100.00
2022-08-01T08:25:43.362Z,100.00
2022-08-01T08:28:45.037Z,100.00
2022-08-01T08:31:52.234Z,100.00
2022-08-01T08:34:54.427Z,100.00
2022-08-01T08:37:56.169Z,100.00
2022-08-01T08:41:00.850Z,100.00
2022-08-01T08:44:09.988Z,100.00
2022-08-01T08:47:19.082Z,100.00
2022-08-01T08:50:22.012Z,100.00
2022-08-01T08:53:24.761Z,100.00
2022-08-01T08:56:38.539Z,100.00
2022-08-01T08:59:40.633Z,100.00
2022-08-01T09:02:44.345Z,99.80
2022-08-01T09:05:46.365Z,98.30
2022-08-01T09:08:48.671Z,99.45
2022-08-01T09:11:56.814Z,99.19
2022-08-01T09:15:00.091Z,98.11
2022-08-01T09:18:01.717Z,98.39
2022-08-01T09:21:09.971Z,98.63
2022-08-01T09:24:16.769Z,99.18
2022-08-01T09:27:24.997Z,98.94
2022-08-01T09:30:26.908Z,98.82
2022-08-01T09:33:51.196Z,96.87
2022-08-01T09:36:57.454Z,97.62
2022-08-01T09:39:59.223Z,98.45
2022-08-01T09:43:14.984Z,97.95
2022-08-01T09:46:17.358Z,98.07
2022-08-01T09:49:50.812Z,97.58
2022-08-01T09:52:57.959Z,97.36
2022-08-01T09:56:13.340Z,96.92
2022-08-01T09:59:16.787Z,95.35
2022-08-01T10:02:40.147Z,94.91
2022-08-01T10:05:43.936Z,92.79
2022-08-01T10:08:51.614Z,93.52
2022-08-01T10:11:53.716Z,92.55
2022-08-01T10:14:59.350Z,92.98
2022-08-01T10:18:04.756Z,93.07
2022-08-01T10:21:57.073Z,92.00
2022-08-01T10:24:42.394Z,92.13
2022-08-01T10:27:46.550Z,93.43
2022-08-01T10:30:49.853Z,94.13
2022-08-01T10:33:53.379Z,93.46
2022-08-01T10:36:55.371Z,92.36
2022-08-01T10:40:27.093Z,91.77
2022-08-01T10:43:21.542Z,92.15
2022-08-01T10:46:24.240Z,91.12
2022-08-01T10:49:31.667Z,91.11
2022-08-01T10:52:39.169Z,91.42
2022-08-01T10:56:08.519Z,91.24
2022-08-01T10:59:11.593Z,91.48
2022-08-01T11:02:46.404Z,91.72
2022-08-01T11:05:53.258Z,90.19
2022-08-01T11:08:55.945Z,88.77
2022-08-01T11:12:08.925Z,86.71
2022-08-01T11:15:16.393Z,84.73
2022-08-01T11:18:32.095Z,83.14
2022-08-01T11:21:59.347Z,83.83
2022-08-01T11:25:03.016Z,83.10
2022-08-01T11:28:28.241Z,81.09
2022-08-01T11:31:37.604Z,81.35
2022-08-01T11:34:56.770Z,80.91
2022-08-01T11:38:25.344Z,83.56
2022-08-01T11:41:38.697Z,83.22
2022-08-01T11:44:59.255Z,81.93
2022-08-01T11:48:01.494Z,81.68
2022-08-01T11:51:03.710Z,80.98
2022-08-01T11:54:05.632Z,79.52
2022-08-01T11:57:10.359Z,78.37
2022-08-01T12:00:15.346Z,78.12
2022-08-01T12:03:33.501Z,77.07
2022-08-01T12:06:35.488Z,76.14
2022-08-01T12:09:37.115Z,75.78
2022-08-01T12:12:44.729Z,76.10
2022-08-01T12:15:47.532Z,77.25
2022-08-01T12:18:49.848Z,79.00
2022-08-01T12:22:08.711Z,77.67
2022-08-01T12:25:11.502Z,76.46
2022-08-01T12:28:15.914Z,76.58
2022-08-01T12:31:17.640Z,76.26
2022-08-01T12:34:26.393Z,76.93
2022-08-01T12:37:28.429Z,75.78
2022-08-01T12:40:32.323Z,75.21
2022-08-01T12:43:35.469Z,76.43
2022-08-01T12:46:39.509Z,76.33
2022-08-01T12:49:46.692Z,75.63
2022-08-01T12:52:49.619Z,75.52
2022-08-01T12:55:59.134Z,72.44
2022-08-01T12:59:01.650Z,72.19
2022-08-01T13:02:09.637Z,73.63
2022-08-01T13:05:12.423Z,73.76
2022-08-01T13:08:16.506Z,71.04
2022-08-01T13:11:19.793Z,70.35
2022-08-01T13:14:30.381Z,69.08
2022-08-01T13:17:40.917Z,69.95
2022-08-01T13:20:42.607Z,69.40
2022-08-01T13:24:10.539Z,67.42
2022-08-01T13:27:24.830Z,69.78
2022-08-01T13:30:26.444Z,70.17
2022-08-01T13:33:40.718Z,68.87
2022-08-01T13:36:48.590Z,68.15
2022-08-01T13:39:51.241Z,69.82
2022-08-01T13:42:53.222Z,67.99
2022-08-01T13:45:54.846Z,67.06
2022-08-01T13:48:56.555Z,67.37
2022-08-01T13:51:59.010Z,68.40
2022-08-01T13:55:02.054Z,66.96
2022-08-01T13:58:03.978Z,67.77
2022-08-01T14:01:06.144Z,68.25
2022-08-01T14:04:07.939Z,68.21
2022-08-01T14:07:14.396Z,69.00
2022-08-01T14:10:19.324Z,69.58
2022-08-01T14:13:23.835Z,70.80
2022-08-01T14:16:25.930Z,70.42
2022-08-01T14:19:38.777Z,70.07
2022-08-01T14:22:41.650Z,69.89
2022-08-01T14:26:01.479Z,68.32
2022-08-01T14:29:05.036Z,68.46
2022-08-01T14:32:07.270Z,66.73
2022-08-01T14:35:09.590Z,68.27
2022-08-01T14:38:11.216Z,69.67
2022-08-01T14:41:13.219Z,70.23
2022-08-01T14:44:14.902Z,69.27
2022-08-01T14:47:21.597Z,68.02
2022-08-01T14:50:25.085Z,69.23
2022-08-01T14:53:26.641Z,68.99
2022-08-01T14:56:28.336Z,67.56
2022-08-01T14:59:30.003Z,66.80
2022-08-01T15:02:31.612Z,68.17
2022-08-01T15:05:33.873Z,68.58
2022-08-01T15:08:36.360Z,69.18
2022-08-01T15:11:38.433Z,69.32
2022-08-01T15:14:48.988Z,70.30
2022-08-01T15:17:52.624Z,70.95
2022-08-01T15:20:54.563Z,71.13
2022-08-01T15:23:56.540Z,70.58
2022-08-01T15:26:58.599Z,70.88
2022-08-01T15:30:00.263Z,71.54
2022-08-01T15:33:01.855Z,71.79
2022-08-01T15:36:03.685Z,72.23
2022-08-01T15:39:05.331Z,72.06
2022-08-01T15:42:10.416Z,70.01
2022-08-01T15:45:37.482Z,70.02
2022-08-01T15:48:39.830Z,71.13
2022-08-01T15:51:42.050Z,70.33
2022-08-01T15:54:43.734Z,67.64
2022-08-01T15:57:45.779Z,68.52
2022-08-01T16:00:47.529Z,69.33
2022-08-01T16:03:49.173Z,69.85
2022-08-01T16:06:51.102Z,69.68
2022-08-01T16:09:52.813Z,69.72
2022-08-01T16:12:54.453Z,68.62
2022-08-01T16:15:56.075Z,68.53
2022-08-01T16:18:57.742Z,68.19
2022-08-01T16:21:59.413Z,68.51
2022-08-01T16:25:01.178Z,68.33
2022-08-01T16:28:02.949Z,68.28
2022-08-01T16:31:15.973Z,68.82
2022-08-01T16:34:26.590Z,69.81
2022-08-01T16:37:28.230Z,70.21
2022-08-01T16:40:29.910Z,69.92
2022-08-01T16:43:31.581Z,69.29
2022-08-01T16:46:33.242Z,69.22
2022-08-01T16:49:34.894Z,69.52
2022-08-01T16:52:41.672Z,69.59
2022-08-01T16:55:50.652Z,69.75
2022-08-01T16:58:52.625Z,68.79
2022-08-01T17:02:00.027Z,69.21
2022-08-01T17:05:07.131Z,69.74
2022-08-01T17:08:11.093Z,68.85
2022-08-01T17:11:13.276Z,69.56
2022-08-01T17:14:15.111Z,69.19
2022-08-01T17:17:17.048Z,69.74
2022-08-01T17:20:18.867Z,69.35
2022-08-01T17:23:20.528Z,69.42
2022-08-01T17:26:22.217Z,69.50
2022-08-01T17:29:24.016Z,69.94
2022-08-01T17:32:25.801Z,70.22
2022-08-01T17:35:28.030Z,71.13
2022-08-01T17:38:29.631Z,71.35
2022-08-01T17:41:31.631Z,71.72
2022-08-01T17:44:33.246Z,71.91
2022-08-01T17:47:50.306Z,71.93
2022-08-01T17:50:53.139Z,72.65
2022-08-01T17:53:57.160Z,72.59
2022-08-01T17:56:59.576Z,72.66
2022-08-01T18:00:01.435Z,72.66
2022-08-01T18:03:08.095Z,72.99
2022-08-01T18:06:13.497Z,73.20
2022-08-01T18:09:15.193Z,73.58
2022-08-01T18:12:17.175Z,73.45
2022-08-01T18:15:24.536Z,74.04
2022-08-01T18:18:33.201Z,74.51
2022-08-01T18:21:39.737Z,75.17
2022-08-01T18:24:44.183Z,74.82
2022-08-01T18:28:30.640Z,75.67
2022-08-01T18:31:08.374Z,75.92
2022-08-01T18:34:10.121Z,76.77
2022-08-01T18:37:14.700Z,76.59
2022-08-01T18:40:22.625Z,76.71
2022-08-01T18:43:25.046Z,76.72
2022-08-01T18:46:27.250Z,76.64
2022-08-01T18:49:29.318Z,77.00
2022-08-01T18:52:32.503Z,77.72
2022-08-01T18:55:34.194Z,76.94
2022-08-01T18:58:36.344Z,77.74
2022-08-01T19:01:40.905Z,78.17
2022-08-01T19:04:43.978Z,78.26
2022-08-01T19:08:04.981Z,77.96
2022-08-01T19:11:07.369Z,78.15
2022-08-01T19:14:09.029Z,78.37
2022-08-01T19:17:10.773Z,78.72
2022-08-01T19:20:12.372Z,79.06
2022-08-01T19:23:32.558Z,79.30
2022-08-01T19:26:36.218Z,79.33
2022-08-01T19:29:39.259Z,79.16
2022-08-01T19:32:43.482Z,79.39
2022-08-01T19:35:46.233Z,79.88
2022-08-01T19:38:48.829Z,80.13
2022-08-01T19:41:51.977Z,80.21
2022-08-01T19:44:54.486Z,80.77
2022-08-01T19:47:57.807Z,80.98
2022-08-01T19:51:02.205Z,81.11
2022-08-01T19:54:06.089Z,81.56
2022-08-01T19:57:09.240Z,82.05
2022-08-01T20:00:23.804Z,82.37
2022-08-01T20:03:32.644Z,82.80
2022-08-01T20:06:35.365Z,83.61
2022-08-01T20:09:40.223Z,83.59
2022-08-01T20:12:42.212Z,82.82
2022-08-01T20:15:45.110Z,82.92
2022-08-01T20:18:47.047Z,82.98
2022-08-01T20:22:03.740Z,82.97
2022-08-01T20:25:06.263Z,83.04
2022-08-01T20:28:12.727Z,83.19
2022-08-01T20:31:16.344Z,83.52
2022-08-01T20:34:22.424Z,83.59
2022-08-01T20:38:05.990Z,83.71
2022-08-01T20:40:49.748Z,83.95
2022-08-01T20:43:56.289Z,84.20
2022-08-01T20:46:58.642Z,84.44
2022-08-01T20:50:27.720Z,84.72
2022-08-01T20:53:43.715Z,84.50
2022-08-01T20:56:54.677Z,84.49
2022-08-01T21:00:04.246Z,84.14
2022-08-01T21:03:16.056Z,83.83
2022-08-01T21:06:22.740Z,83.84
2022-08-01T21:09:26.756Z,84.36
2022-08-01T21:12:49.606Z,84.13
2022-08-01T21:16:07.498Z,84.33
2022-08-01T21:19:26.733Z,84.20
2022-08-01T21:22:53.050Z,84.64
2022-08-01T21:25:58.016Z,84.84
2022-08-01T21:29:02.433Z,84.26
2022-08-01T21:32:12.602Z,83.96
2022-08-01T21:35:16.308Z,84.51
2022-08-01T21:38:20.440Z,84.29
2022-08-01T21:42:03.430Z,82.94
2022-08-01T21:44:47.976Z,82.41
2022-08-01T21:47:50.580Z,81.70
2022-08-01T21:50:59.370Z,81.60
2022-08-01T21:54:24.566Z,81.53
2022-08-01T21:57:55.620Z,82.14
2022-08-01T22:01:13.586Z,82.12
2022-08-01T22:04:18.581Z,82.76
2022-08-01T22:07:22.778Z,83.23
2022-08-01T22:10:26.185Z,83.59
2022-08-01T22:13:27.854Z,82.71
2022-08-01T22:16:31.806Z,82.60
2022-08-01T22:19:45.039Z,82.83
2022-08-01T22:22:52.295Z,82.84
2022-08-01T22:25:55.473Z,83.38
2022-08-01T22:28:58.627Z,83.52
2022-08-01T22:32:01.600Z,83.83
2022-08-01T22:35:06.445Z,83.82
2022-08-01T22:38:09.885Z,84.10
2022-08-01T22:41:16.174Z,83.88
2022-08-01T22:44:27.086Z,84.26
2022-08-01T22:47:50.529Z,84.70
2022-08-01T22:50:59.913Z,84.89
2022-08-01T22:54:04.585Z,84.91
2022-08-01T22:57:14.348Z,84.87
2022-08-01T23:00:16.140Z,85.20
2022-08-01T23:03:24.392Z,85.57
2022-08-01T23:06:35.905Z,85.15
2022-08-01T23:09:52.803Z,85.51
2022-08-01T23:12:56.672Z,85.56
2022-08-01T23:16:00.666Z,85.67
2022-08-01T23:19:02.449Z,85.69
2022-08-01T23:22:04.840Z,86.19
2022-08-01T23:25:10.827Z,86.17
2022-08-01T23:28:13.312Z,86.41
2022-08-01T23:31:16.595Z,86.73
2022-08-01T23:34:20.098Z,86.99
2022-08-01T23:37:22.069Z,87.07
2022-08-01T23:40:25.093Z,87.09
2022-08-01T23:43:26.990Z,87.31
2022-08-01T23:46:28.586Z,87.14
2022-08-01T23:49:30.791Z,87.17
2022-08-01T23:52:34.169Z,87.59
2022-08-01T23:55:38.063Z,88.08
2022-08-01T23:58:39.744Z,88.21
